Time,TemperatureF,DewpointF,PressureIn,WindDirection,WindDirectionDegrees,WindSpeedMPH,WindSpeedGustMPH,Humidity,HourlyPrecipIn,Conditions,Clouds,dailyrainin,SolarRadiationWatts/m^2,SoftwareType,DateUTC
2013-01-15 00:02:00,0.0,-8.0,-100.00,SSW,199,1.0,2.0,68,0.00,,,0.00,0.000000,,2013-01-15 07:02:00,
2013-01-15 00:12:00,0.0,-8.0,-100.00,SSW,199,1.0,2.0,68,0.00,,,0.00,0.000000,,2013-01-15 07:12:00,
2013-01-15 00:22:00,0.0,-8.0,-100.00,SSW,199,1.0,2.0,68,0.00,,,0.00,0.000000,,2013-01-15 07:22:00,
2013-01-15 00:30:00,0.0,-10.0,-100.00,East,94,2.0,4.0,63,0.00,,,0.00,0.000000,,2013-01-15 07:30:00,
2013-01-15 00:52:00,0.0,-10.0,-100.00,East,94,2.0,4.0,63,0.00,,,0.00,0.000000,,2013-01-15 07:52:00,
2013-01-15 01:02:00,0.0,-10.0,-100.00,East,94,2.0,4.0,63,0.00,,,0.00,0.000000,,2013-01-15 08:02:00,
2013-01-15 01:12:00,0.0,-10.0,-100.00,East,94,2.0,4.0,63,0.00,,,0.00,0.000000,,2013-01-15 08:12:00,
2013-01-15 01:22:00,0.0,-10.0,-100.00,East,94,2.0,4.0,63,0.00,,,0.00,0.000000,,2013-01-15 08:22:00,
2013-01-15 01:30:00,2.0,-11.0,-100.00,North,11,5.0,10.0,53,0.00,,,0.00,0.000000,,2013-01-15 08:30:00,
2013-01-15 01:53:00,2.0,-11.0,-100.00,North,11,5.0,10.0,53,0.00,,,0.00,0.000000,,2013-01-15 08:53:00,
2013-01-15 02:02:00,2.0,-11.0,-100.00,North,11,5.0,10.0,53,0.00,,,0.00,0.000000,,2013-01-15 09:02:00,
2013-01-15 02:12:00,2.0,-11.0,-100.00,North,11,5.0,10.0,53,0.00,,,0.00,0.000000,,2013-01-15 09:12:00,
2013-01-15 02:22:00,2.0,-11.0,-100.00,North,11,5.0,10.0,53,0.00,,,0.00,0.000000,,2013-01-15 09:22:00,
2013-01-15 02:30:00,2.0,-10.0,-100.00,NNE,28,4.0,9.0,55,0.00,,,0.00,0.000000,,2013-01-15 09:30:00,
2013-01-15 02:52:00,2.0,-10.0,-100.00,NNE,28,4.0,9.0,55,0.00,,,0.00,0.000000,,2013-01-15 09:52:00,
2013-01-15 03:52:00,2.0,-12.0,-100.00,North,353,5.0,12.0,52,0.00,,,0.00,0.000000,,2013-01-15 10:52:00,
2013-01-15 04:02:00,2.0,-12.0,-100.00,North,353,5.0,12.0,52,0.00,,,0.00,0.000000,,2013-01-15 11:02:00,
2013-01-15 04:30:00,0.0,-13.0,-100.00,SE,127,3.0,15.0,54,-99.99,,,0.00,0.000000,,2013-01-15 11:30:00,
2013-01-15 04:53:00,0.0,-13.0,-100.00,SE,127,3.0,15.0,54,-99.99,,,0.00,0.000000,,2013-01-15 11:53:00,
2013-01-15 05:02:00,0.0,-13.0,-100.00,SE,127,3.0,15.0,54,-99.99,,,0.00,0.000000,,2013-01-15 12:02:00,
2013-01-15 05:12:00,0.0,-13.0,-100.00,SE,127,3.0,15.0,54,-99.99,,,0.00,0.000000,,2013-01-15 12:12:00,
2013-01-15 05:22:00,0.0,-13.0,-100.00,SE,127,3.0,15.0,54,-99.99,,,0.00,0.000000,,2013-01-15 12:22:00,
2013-01-15 05:30:00,0.0,-13.0,-100.00,NNE,27,4.0,5.0,52,0.00,,,0.00,0.000000,,2013-01-15 12:30:00,
2013-01-15 05:53:00,0.0,-13.0,-100.00,NNE,27,4.0,5.0,52,0.00,,,0.00,0.000000,,2013-01-15 12:53:00,
2013-01-15 06:03:00,0.0,-13.0,-100.00,NNE,27,4.0,5.0,52,0.00,,,0.00,0.000000,,2013-01-15 13:03:00,
2013-01-15 06:12:00,0.0,-13.0,-100.00,NNE,27,4.0,5.0,52,0.00,,,0.00,0.000000,,2013-01-15 13:12:00,
2013-01-15 06:23:00,0.0,-13.0,-100.00,NNE,27,4.0,5.0,52,0.00,,,0.00,0.000000,,2013-01-15 13:23:00,
2013-01-15 06:30:00,-2.0,-15.0,-100.00,NNE,29,1.0,6.0,54,0.00,,,0.00,0.000000,,2013-01-15 13:30:00,
2013-01-15 06:53:00,-2.0,-15.0,-100.00,NNE,29,1.0,6.0,54,0.00,,,0.00,0.000000,,2013-01-15 13:53:00,
2013-01-15 07:02:00,-2.0,-15.0,-100.00,NNE,29,1.0,6.0,54,0.00,,,0.00,0.000000,,2013-01-15 14:02:00,
2013-01-15 07:12:00,-2.0,-15.0,-100.00,NNE,29,1.0,6.0,54,0.00,,,0.00,0.000000,,2013-01-15 14:12:00,
2013-01-15 07:23:00,-2.0,-15.0,-100.00,NNE,29,1.0,6.0,54,0.00,,,0.00,0.000000,,2013-01-15 14:23:00,
2013-01-15 07:30:00,2.0,-15.0,-100.00,NW,311,2.0,11.0,44,0.00,,,0.00,1.000000,,2013-01-15 14:30:00,
2013-01-15 07:53:00,2.0,-15.0,-100.00,NW,311,2.0,11.0,44,0.00,,,0.00,1.000000,,2013-01-15 14:53:00,
2013-01-15 08:03:00,2.0,-15.0,-100.00,NW,311,2.0,11.0,44,0.00,,,0.00,1.000000,,2013-01-15 15:03:00,
2013-01-15 08:53:00,7.0,-12.0,-100.00,North,2,3.0,5.0,41,-99.99,,,0.00,73.000000,,2013-01-15 15:53:00,
2013-01-15 09:02:00,7.0,-12.0,-100.00,North,2,3.0,5.0,41,-99.99,,,0.00,73.000000,,2013-01-15 16:02:00,
2013-01-15 09:53:00,15.0,-9.0,-100.00,WNW,289,1.0,6.0,32,-99.99,,,0.00,219.000000,,2013-01-15 16:53:00,
2013-01-15 10:53:00,19.0,-7.0,-100.00,South,188,2.0,5.0,31,-99.99,,,0.00,317.000000,,2013-01-15 17:53:00,
2013-01-15 11:03:00,19.0,-7.0,-100.00,South,188,2.0,5.0,31,-99.99,,,0.00,317.000000,,2013-01-15 18:03:00,
2013-01-15 11:53:00,21.0,-4.0,-100.00,NE,48,2.0,5.0,32,-99.99,,,0.00,458.000000,,2013-01-15 18:53:00,
2013-01-15 12:53:00,23.0,-2.0,-100.00,WSW,252,5.0,8.0,33,0.00,,,0.00,664.000000,,2013-01-15 19:53:00,
2013-01-15 13:03:00,23.0,-2.0,-100.00,WSW,252,5.0,8.0,33,0.00,,,0.00,664.000000,,2013-01-15 20:03:00,
2013-01-15 13:53:00,26.0,1.0,-100.00,West,275,4.0,12.0,33,-99.99,,,0.00,680.000000,,2013-01-15 20:53:00,
2013-01-15 14:30:00,23.0,1.0,-100.00,WNW,293,6.0,13.0,38,-99.99,,,0.00,593.000000,,2013-01-15 21:30:00,
2013-01-15 14:53:00,23.0,1.0,-100.00,WNW,293,6.0,13.0,38,-99.99,,,0.00,593.000000,,2013-01-15 21:53:00,
2013-01-15 15:02:00,23.0,1.0,-100.00,WNW,293,6.0,13.0,38,-99.99,,,0.00,593.000000,,2013-01-15 22:02:00,
2013-01-15 15:12:00,23.0,1.0,-100.00,WNW,293,6.0,13.0,38,-99.99,,,0.00,593.000000,,2013-01-15 22:12:00,
2013-01-15 15:22:00,23.0,1.0,-100.00,WNW,293,6.0,13.0,38,-99.99,,,0.00,593.000000,,2013-01-15 22:22:00,
2013-01-15 15:30:00,25.0,3.0,-100.00,West,266,4.0,13.0,38,0.00,,,0.00,441.000000,,2013-01-15 22:30:00,
2013-01-15 15:53:00,25.0,3.0,-100.00,West,266,4.0,13.0,38,0.00,,,0.00,441.000000,,2013-01-15 22:53:00,
2013-01-15 16:02:00,25.0,3.0,-100.00,West,266,4.0,13.0,38,0.00,,,0.00,441.000000,,2013-01-15 23:02:00,
2013-01-15 16:12:00,25.0,3.0,-100.00,West,266,4.0,13.0,38,0.00,,,0.00,441.000000,,2013-01-15 23:12:00,
2013-01-15 16:22:00,25.0,3.0,-100.00,West,266,4.0,13.0,38,0.00,,,0.00,441.000000,,2013-01-15 23:22:00,
2013-01-15 16:30:00,22.0,2.0,-100.00,West,279,5.0,11.0,41,0.00,,,0.00,190.000000,,2013-01-15 23:30:00,
2013-01-15 16:53:00,22.0,2.0,-100.00,West,279,5.0,11.0,41,0.00,,,0.00,190.000000,,2013-01-15 23:53:00,
2013-01-15 17:02:00,22.0,2.0,-100.00,West,279,5.0,11.0,41,0.00,,,0.00,190.000000,,2013-01-16 00:02:00,
2013-01-15 17:30:00,18.0,1.0,-100.00,NW,306,6.0,12.0,47,0.00,,,0.00,16.000000,,2013-01-16 00:30:00,
2013-01-15 17:53:00,18.0,1.0,-100.00,NW,306,6.0,12.0,47,0.00,,,0.00,16.000000,,2013-01-16 00:53:00,
2013-01-15 18:02:00,18.0,1.0,-100.00,NW,306,6.0,12.0,47,0.00,,,0.00,16.000000,,2013-01-16 01:02:00,
2013-01-15 18:12:00,18.0,1.0,-100.00,NW,306,6.0,12.0,47,0.00,,,0.00,16.000000,,2013-01-16 01:12:00,
2013-01-15 18:22:00,18.0,1.0,-100.00,NW,306,6.0,12.0,47,0.00,,,0.00,16.000000,,2013-01-16 01:22:00,
2013-01-15 18:30:00,16.0,2.0,-100.00,WNW,294,4.0,12.0,52,0.00,,,0.00,0.000000,,2013-01-16 01:30:00,
2013-01-15 18:53:00,16.0,2.0,-100.00,WNW,294,4.0,12.0,52,0.00,,,0.00,0.000000,,2013-01-16 01:53:00,
2013-01-15 19:02:00,16.0,2.0,-100.00,WNW,294,4.0,12.0,52,0.00,,,0.00,0.000000,,2013-01-16 02:02:00,
2013-01-15 19:12:00,16.0,2.0,-100.00,WNW,294,4.0,12.0,52,0.00,,,0.00,0.000000,,2013-01-16 02:12:00,
2013-01-15 19:22:00,16.0,2.0,-100.00,WNW,294,4.0,12.0,52,0.00,,,0.00,0.000000,,2013-01-16 02:22:00,
2013-01-15 19:30:00,13.0,0.0,-100.00,ENE,60,2.0,11.0,55,0.00,,,0.00,0.000000,,2013-01-16 02:30:00,
2013-01-15 19:53:00,13.0,0.0,-100.00,ENE,60,2.0,11.0,55,0.00,,,0.00,0.000000,,2013-01-16 02:53:00,
2013-01-15 20:02:00,13.0,0.0,-100.00,ENE,60,2.0,11.0,55,0.00,,,0.00,0.000000,,2013-01-16 03:02:00,
2013-01-15 20:11:00,13.0,0.0,-100.00,ENE,60,2.0,11.0,55,0.00,,,0.00,0.000000,,2013-01-16 03:11:00,
2013-01-15 20:22:00,13.0,0.0,-100.00,ENE,60,2.0,11.0,55,0.00,,,0.00,0.000000,,2013-01-16 03:22:00,
2013-01-15 20:30:00,12.0,-1.0,-100.00,North,6,4.0,8.0,56,0.00,,,0.00,0.000000,,2013-01-16 03:30:00,
2013-01-15 20:53:00,12.0,-1.0,-100.00,North,6,4.0,8.0,56,0.00,,,0.00,0.000000,,2013-01-16 03:53:00,
2013-01-15 21:02:00,12.0,-1.0,-100.00,North,6,4.0,8.0,56,0.00,,,0.00,0.000000,,2013-01-16 04:02:00,
2013-01-15 21:12:00,12.0,-1.0,-100.00,North,6,4.0,8.0,56,0.00,,,0.00,0.000000,,2013-01-16 04:12:00,
2013-01-15 21:22:00,12.0,-1.0,-100.00,North,6,4.0,8.0,56,0.00,,,0.00,0.000000,,2013-01-16 04:22:00,
2013-01-15 21:30:00,12.0,0.0,-100.00,NNE,13,2.0,6.0,58,0.00,,,0.00,0.000000,,2013-01-16 04:30:00,
2013-01-15 21:52:00,12.0,0.0,-100.00,NNE,13,2.0,6.0,58,0.00,,,0.00,0.000000,,2013-01-16 04:52:00,
2013-01-15 22:03:00,12.0,0.0,-100.00,NNE,13,2.0,6.0,58,0.00,,,0.00,0.000000,,2013-01-16 05:03:00,
2013-01-15 22:12:00,12.0,0.0,-100.00,NNE,13,2.0,6.0,58,0.00,,,0.00,0.000000,,2013-01-16 05:12:00,
2013-01-15 22:22:00,12.0,0.0,-100.00,NNE,13,2.0,6.0,58,0.00,,,0.00,0.000000,,2013-01-16 05:22:00,
2013-01-15 22:30:00,10.0,-1.0,-100.00,South,188,2.0,4.0,61,0.00,,,0.00,0.000000,,2013-01-16 05:30:00,
2013-01-15 22:53:00,10.0,-1.0,-100.00,South,188,2.0,4.0,61,0.00,,,0.00,0.000000,,2013-01-16 05:53:00,
2013-01-15 23:02:00,10.0,-1.0,-100.00,South,188,2.0,4.0,61,0.00,,,0.00,0.000000,,2013-01-16 06:02:00,
2013-01-15 23:12:00,10.0,-1.0,-100.00,South,188,2.0,4.0,61,0.00,,,0.00,0.000000,,2013-01-16 06:12:00,
2013-01-15 23:22:00,10.0,-1.0,-100.00,South,188,2.0,4.0,61,0.00,,,0.00,0.000000,,2013-01-16 06:22:00,
2013-01-15 23:30:00,8.0,-1.0,-100.00,West,271,1.0,4.0,65,0.00,,,0.00,0.000000,,2013-01-16 06:30:00,
2013-01-15 23:53:00,8.0,-1.0,-100.00,West,271,1.0,4.0,65,0.00,,,0.00,0.000000,,2013-01-16 06:53:00,